createdAt,value
2017-03-05T00:00:33.840Z,0
2017-03-05T00:01:44.009Z,0
2017-03-05T00:02:53.800Z,0
2017-03-05T00:04:04.415Z,0
2017-03-05T00:05:13.736Z,0
2017-03-05T00:06:23.069Z,0
2017-03-05T00:07:32.804Z,0
2017-03-05T00:08:41.929Z,0
2017-03-05T00:09:51.528Z,0
2017-03-05T00:11:00.881Z,0
2017-03-05T00:12:11.038Z,0
2017-03-05T00:13:20.036Z,0
2017-03-05T00:14:29.382Z,0
2017-03-05T00:15:39.741Z,0
2017-03-05T00:16:49.756Z,0
2017-03-05T00:17:58.687Z,0
2017-03-05T00:19:07.631Z,0
2017-03-05T00:20:17.417Z,0
2017-03-05T00:21:27.522Z,0
2017-03-05T00:22:37.271Z,0
2017-03-05T00:23:46.799Z,0
2017-03-05T00:24:55.726Z,0
2017-03-05T00:26:05.660Z,0
2017-03-05T00:27:15.015Z,0
2017-03-05T00:28:24.355Z,0
2017-03-05T00:29:33.711Z,0
2017-03-05T00:30:43.054Z,0
2017-03-05T00:31:52.787Z,0
2017-03-05T00:33:03.315Z,0
2017-03-05T00:34:13.498Z,0
2017-03-05T00:35:22.444Z,0
2017-03-05T00:36:31.802Z,0
2017-03-05T00:37:41.581Z,0
2017-03-05T00:38:51.005Z,0
2017-03-05T00:40:00.376Z,0
2017-03-05T00:41:10.561Z,0
2017-03-05T00:42:19.539Z,0
2017-03-05T00:43:28.963Z,0
2017-03-05T00:44:39.268Z,0
2017-03-05T00:45:49.423Z,0
2017-03-05T00:46:58.343Z,0
2017-03-05T00:48:07.258Z,0
2017-03-05T00:49:16.614Z,0
2017-03-05T00:50:26.783Z,0
2017-03-05T00:51:36.211Z,0
2017-03-05T00:52:45.947Z,0
2017-03-05T00:53:55.270Z,0
2017-03-05T00:55:04.621Z,0
2017-03-05T00:56:14.725Z,0
2017-03-05T00:57:25.406Z,0
2017-03-05T00:58:35.563Z,0
2017-03-05T00:59:45.369Z,0
2017-03-05T01:00:54.702Z,0
2017-03-05T01:02:04.585Z,0
2017-03-05T01:03:13.939Z,0
2017-03-05T01:04:22.850Z,0
2017-03-05T01:05:32.183Z,0
2017-03-05T01:06:41.504Z,0
2017-03-05T01:07:51.124Z,0
2017-03-05T01:09:01.276Z,0
2017-03-05T01:10:11.836Z,0
2017-03-05T01:11:21.167Z,0
2017-03-05T01:12:30.080Z,0
2017-03-05T01:13:39.561Z,0
2017-03-05T01:14:48.895Z,0
2017-03-05T01:15:58.680Z,0
2017-03-05T01:17:07.998Z,0
2017-03-05T01:18:17.316Z,0
2017-03-05T01:19:27.513Z,0
2017-03-05T01:20:37.260Z,0
2017-03-05T01:21:46.600Z,0
2017-03-05T01:22:55.516Z,0
2017-03-05T01:24:04.872Z,0
2017-03-05T01:25:14.263Z,0
2017-03-05T01:26:24.424Z,0
2017-03-05T01:27:33.787Z,0
2017-03-05T01:28:43.120Z,0
2017-03-05T01:29:52.859Z,0
2017-03-05T01:31:03.235Z,0
2017-03-05T01:32:12.560Z,0
2017-03-05T01:33:22.352Z,0
2017-03-05T01:34:32.086Z,0
2017-03-05T01:35:40.998Z,0
2017-03-05T01:36:50.530Z,0
2017-03-05T01:37:59.868Z,0
2017-03-05T01:39:09.184Z,0
2017-03-05T01:40:18.531Z,0
2017-03-05T01:41:27.458Z,0
2017-03-05T01:42:36.899Z,0
2017-03-05T01:43:45.854Z,0
2017-03-05T01:44:55.190Z,0
2017-03-05T01:46:04.544Z,0
2017-03-05T01:47:14.687Z,0
2017-03-05T01:48:24.179Z,0
2017-03-05T01:49:33.932Z,0
2017-03-05T01:50:43.659Z,0
2017-03-05T01:51:53.409Z,0
2017-03-05T01:53:02.751Z,0
2017-03-05T01:54:12.321Z,0
2017-03-05T01:55:22.076Z,0
2017-03-05T01:56:31.412Z,0
2017-03-05T01:57:41.566Z,0
2017-03-05T01:58:52.113Z,0
2017-03-05T02:00:02.403Z,0
2017-03-05T02:01:11.729Z,0
2017-03-05T02:02:21.047Z,0
2017-03-05T02:03:29.957Z,0
2017-03-05T02:04:39.718Z,0
2017-03-05T02:05:49.471Z,0
2017-03-05T02:06:58.417Z,0
2017-03-05T02:08:08.180Z,0
2017-03-05T02:09:17.512Z,0
2017-03-05T02:10:26.462Z,0
2017-03-05T02:11:36.804Z,0
2017-03-05T02:12:47.368Z,0
2017-03-05T02:13:56.332Z,0
2017-03-05T02:15:06.476Z,0
2017-03-05T02:16:15.814Z,0
2017-03-05T02:17:24.773Z,0
2017-03-05T02:18:34.118Z,0
2017-03-05T02:19:43.845Z,0
2017-03-05T02:20:53.162Z,0
2017-03-05T02:22:02.094Z,0
2017-03-05T02:23:11.571Z,0
2017-03-05T02:24:20.478Z,0
2017-03-05T02:25:29.423Z,0
2017-03-05T02:26:39.594Z,0
2017-03-05T02:27:48.525Z,0
2017-03-05T02:28:57.445Z,0
2017-03-05T02:30:07.581Z,0
2017-03-05T02:31:17.333Z,0
2017-03-05T02:32:27.525Z,0
2017-03-05T02:33:36.854Z,0
2017-03-05T02:34:45.850Z,0
2017-03-05T02:35:55.594Z,0
2017-03-05T02:37:04.975Z,0
2017-03-05T02:38:14.735Z,0
2017-03-05T02:39:24.481Z,0
2017-03-05T02:40:33.820Z,0
2017-03-05T02:41:44.368Z,0
2017-03-05T02:42:53.696Z,0
2017-03-05T02:44:03.838Z,0
2017-03-05T02:45:13.565Z,0
2017-03-05T02:46:22.993Z,0
2017-03-05T02:47:33.138Z,0
2017-03-05T02:48:42.052Z,0
2017-03-05T02:49:51.780Z,0
2017-03-05T02:51:01.516Z,0
2017-03-05T02:52:11.670Z,0
2017-03-05T02:53:21.824Z,0
2017-03-05T02:54:31.145Z,0
2017-03-05T02:55:40.490Z,0
2017-03-05T02:56:49.807Z,0
2017-03-05T02:57:59.992Z,0
2017-03-05T02:59:08.912Z,0
2017-03-05T03:00:19.056Z,0
2017-03-05T03:01:29.217Z,0
2017-03-05T03:02:39.784Z,0
2017-03-05T03:03:49.248Z,0
2017-03-05T03:04:58.564Z,0
2017-03-05T03:06:07.548Z,0
2017-03-05T03:07:16.520Z,0
2017-03-05T03:08:26.666Z,0
2017-03-05T03:09:36.650Z,0
2017-03-05T03:10:46.799Z,0
2017-03-05T03:11:56.125Z,0
2017-03-05T03:13:06.286Z,0
2017-03-05T03:14:15.617Z,0
2017-03-05T03:15:25.111Z,0
2017-03-05T03:16:34.855Z,0
2017-03-05T03:17:44.610Z,0
2017-03-05T03:18:54.345Z,0
2017-03-05T03:20:03.295Z,0
2017-03-05T03:21:13.494Z,0
2017-03-05T03:22:23.228Z,0
2017-03-05T03:23:32.968Z,0
2017-03-05T03:24:41.888Z,0
2017-03-05T03:25:51.623Z,0
2017-03-05T03:27:01.145Z,0
2017-03-05T03:28:11.285Z,0
2017-03-05T03:29:20.632Z,0
2017-03-05T03:30:30.358Z,0
2017-03-05T03:31:40.518Z,0
2017-03-05T03:32:50.553Z,0
2017-03-05T03:33:59.895Z,0
2017-03-05T03:35:09.638Z,0
2017-03-05T03:36:18.967Z,0
2017-03-05T03:37:29.108Z,0
2017-03-05T03:38:39.304Z,0
2017-03-05T03:39:48.660Z,0
2017-03-05T03:40:58.402Z,0
2017-03-05T03:42:08.134Z,0
2017-03-05T03:43:17.062Z,0
2017-03-05T03:44:27.304Z,0
2017-03-05T03:45:36.640Z,0
2017-03-05T03:46:45.983Z,0
2017-03-05T03:47:55.729Z,0
2017-03-05T03:49:05.071Z,0
2017-03-05T03:50:14.948Z,0
2017-03-05T03:51:24.288Z,0
2017-03-05T03:52:33.201Z,0
2017-03-05T03:53:42.109Z,0
2017-03-05T03:54:51.856Z,0
2017-03-05T03:56:01.777Z,0
2017-03-05T03:57:11.557Z,0
2017-03-05T03:58:21.743Z,0
2017-03-05T03:59:31.075Z,0
2017-03-05T04:00:41.638Z,0
2017-03-05T04:01:51.536Z,0
2017-03-05T04:03:00.474Z,0
2017-03-05T04:04:10.221Z,0
2017-03-05T04:05:19.979Z,0
2017-03-05T04:06:30.142Z,0
2017-03-05T04:07:40.987Z,0
2017-03-05T04:08:50.305Z,0
2017-03-05T04:10:00.032Z,0
2017-03-05T04:11:09.772Z,0
2017-03-05T04:12:18.683Z,0
2017-03-05T04:13:28.146Z,0
2017-03-05T04:14:37.486Z,0
2017-03-05T04:15:46.431Z,0
2017-03-05T04:16:55.758Z,0
2017-03-05T04:18:05.911Z,0
2017-03-05T04:19:15.409Z,0
2017-03-05T04:20:25.133Z,0
2017-03-05T04:21:34.062Z,0
2017-03-05T04:22:43.809Z,0
2017-03-05T04:23:53.554Z,0
2017-03-05T04:25:03.739Z,0
2017-03-05T04:26:13.500Z,0
2017-03-05T04:27:22.831Z,0
2017-03-05T04:28:32.159Z,0
2017-03-05T04:29:41.485Z,0
2017-03-05T04:30:52.034Z,0
2017-03-05T04:32:01.352Z,0
2017-03-05T04:33:10.284Z,0
2017-03-05T04:34:19.198Z,0
2017-03-05T04:35:28.110Z,0
2017-03-05T04:36:38.966Z,0
2017-03-05T04:37:49.532Z,0
2017-03-05T04:38:59.685Z,0
2017-03-05T04:40:10.240Z,0
2017-03-05T04:41:19.991Z,0
2017-03-05T04:42:29.359Z,0
2017-03-05T04:43:38.682Z,0
2017-03-05T04:44:48.024Z,0
2017-03-05T04:45:57.761Z,0
2017-03-05T04:47:07.082Z,0
2017-03-05T04:48:16.665Z,0
2017-03-05T04:49:25.585Z,0
2017-03-05T04:50:34.901Z,0
2017-03-05T04:51:44.226Z,0
2017-03-05T04:52:53.154Z,0
2017-03-05T04:54:02.890Z,0
2017-03-05T04:55:13.867Z,0
2017-03-05T04:56:22.838Z,0
2017-03-05T04:57:32.984Z,0
2017-03-05T04:58:42.319Z,0
2017-03-05T04:59:51.785Z,0
2017-03-05T05:01:02.332Z,0
2017-03-05T05:02:12.144Z,0
2017-03-05T05:03:22.699Z,0
2017-03-05T05:04:32.070Z,0
2017-03-05T05:05:41.806Z,0
2017-03-05T05:06:51.152Z,0
2017-03-05T05:08:00.509Z,0
2017-03-05T05:09:10.252Z,0
2017-03-05T05:10:19.574Z,0
2017-03-05T05:11:28.892Z,0
2017-03-05T05:12:37.805Z,0
2017-03-05T05:13:46.738Z,0
2017-03-05T05:14:55.662Z,0
2017-03-05T05:16:05.800Z,0
2017-03-05T05:17:14.713Z,0
2017-03-05T05:18:24.039Z,0
2017-03-05T05:19:33.769Z,0
2017-03-05T05:20:43.511Z,0
2017-03-05T05:21:53.670Z,0
2017-03-05T05:23:03.404Z,0
2017-03-05T05:24:13.143Z,0
2017-03-05T05:25:23.047Z,0
2017-03-05T05:26:32.400Z,0
2017-03-05T05:27:42.149Z,0
2017-03-05T05:28:51.481Z,0
2017-03-05T05:30:00.408Z,0
2017-03-05T05:31:10.140Z,0
2017-03-05T05:32:19.460Z,0
2017-03-05T05:33:29.204Z,0
2017-03-05T05:34:39.342Z,0
2017-03-05T05:35:49.500Z,0
2017-03-05T05:37:00.318Z,4
2017-03-05T05:38:10.043Z,4
2017-03-05T05:39:18.950Z,4
2017-03-05T05:40:28.283Z,0
2017-03-05T05:41:38.006Z,4
2017-03-05T05:42:47.095Z,4
2017-03-05T05:43:56.831Z,8
2017-03-05T05:45:06.170Z,4
2017-03-05T05:46:15.904Z,8
2017-03-05T05:47:25.656Z,8
2017-03-05T05:48:35.852Z,12
2017-03-05T05:49:45.990Z,12
2017-03-05T05:50:55.337Z,12
2017-03-05T05:52:04.675Z,12
2017-03-05T05:53:14.009Z,12
2017-03-05T05:54:23.072Z,16
2017-03-05T05:55:32.817Z,24
2017-03-05T05:56:42.570Z,24
2017-03-05T05:57:51.934Z,24
2017-03-05T05:59:01.278Z,36
2017-03-05T06:00:10.617Z,44
2017-03-05T06:01:19.965Z,44
2017-03-05T06:02:29.707Z,52
2017-03-05T06:03:38.649Z,60
2017-03-05T06:04:47.566Z,68
2017-03-05T06:05:57.198Z,80
2017-03-05T06:07:06.940Z,92
2017-03-05T06:08:17.526Z,96
2017-03-05T06:09:26.870Z,92
2017-03-05T06:10:35.782Z,88
2017-03-05T06:11:44.794Z,120
2017-03-05T06:12:54.140Z,124
2017-03-05T06:14:03.083Z,140
2017-03-05T06:15:12.839Z,164
2017-03-05T06:16:22.584Z,200
2017-03-05T06:17:32.088Z,164
2017-03-05T06:18:41.811Z,160
2017-03-05T06:19:51.983Z,164
2017-03-05T06:21:01.325Z,152
2017-03-05T06:22:11.084Z,216
2017-03-05T06:23:20.778Z,300
2017-03-05T06:24:30.095Z,280
2017-03-05T06:25:39.450Z,288
2017-03-05T06:26:48.800Z,300
2017-03-05T06:27:58.960Z,296
2017-03-05T06:29:08.440Z,348
2017-03-05T06:30:17.356Z,424
2017-03-05T06:31:27.114Z,452
2017-03-05T06:32:37.260Z,420
2017-03-05T06:33:46.187Z,412
2017-03-05T06:34:56.089Z,392
2017-03-05T06:36:05.835Z,416
2017-03-05T06:37:15.176Z,484
2017-03-05T06:38:25.362Z,520
2017-03-05T06:39:35.102Z,636
2017-03-05T06:40:45.817Z,500
2017-03-05T06:41:55.977Z,640
2017-03-05T06:43:05.313Z,880
2017-03-05T06:44:14.648Z,1044
2017-03-05T06:45:24.013Z,1124
2017-03-05T06:46:33.596Z,1156
2017-03-05T06:47:43.431Z,1052
2017-03-05T06:48:52.789Z,1012
2017-03-05T06:50:03.334Z,1088
2017-03-05T06:51:12.260Z,1292
2017-03-05T06:52:21.743Z,1440
2017-03-05T06:53:31.097Z,1340
2017-03-05T06:54:40.443Z,1196
2017-03-05T06:55:50.175Z,1256
2017-03-05T06:57:00.379Z,1728
2017-03-05T06:58:09.365Z,1920
2017-03-05T06:59:19.512Z,1896
2017-03-05T07:00:28.852Z,1916
2017-03-05T07:01:38.996Z,2068
2017-03-05T07:02:48.740Z,2320
2017-03-05T07:03:58.631Z,2440
2017-03-05T07:05:08.358Z,2344
2017-03-05T07:06:18.105Z,2288
2017-03-05T07:07:27.441Z,2388
2017-03-05T07:08:37.801Z,2388
2017-03-05T07:09:47.213Z,2312
2017-03-05T07:10:56.160Z,2384
2017-03-05T07:12:05.813Z,2520
2017-03-05T07:13:15.163Z,2928
2017-03-05T07:14:25.359Z,3032
2017-03-05T07:15:34.688Z,3076
2017-03-05T07:16:44.034Z,2988
2017-03-05T07:17:53.787Z,2964
2017-03-05T07:19:03.529Z,2908
2017-03-05T07:20:13.251Z,3016
2017-03-05T07:21:23.892Z,2940
2017-03-05T07:22:33.642Z,3052
2017-03-05T07:23:42.975Z,3020
2017-03-05T07:24:52.289Z,3016
2017-03-05T07:26:02.040Z,2796
2017-03-05T07:27:13.309Z,2524
2017-03-05T07:28:23.499Z,2668
2017-03-05T07:29:34.228Z,3036
2017-03-05T07:30:43.579Z,3148
2017-03-05T07:31:52.512Z,3224
2017-03-05T07:33:02.078Z,3136
2017-03-05T07:34:11.718Z,2840
2017-03-05T07:35:21.471Z,2908
2017-03-05T07:36:30.870Z,2976
2017-03-05T07:37:39.819Z,2772
2017-03-05T07:38:48.760Z,2468
2017-03-05T07:39:58.118Z,2296
2017-03-05T07:41:07.849Z,2332
2017-03-05T07:42:17.613Z,2408
2017-03-05T07:43:27.776Z,2428
2017-03-05T07:44:38.181Z,2516
2017-03-05T07:45:48.391Z,2608
2017-03-05T07:46:58.341Z,2816
2017-03-05T07:48:08.963Z,2704
2017-03-05T07:49:18.492Z,2532
2017-03-05T07:50:27.831Z,2484
2017-03-05T07:51:36.768Z,2524
2017-03-05T07:52:46.105Z,2584
2017-03-05T07:53:56.078Z,2420
2017-03-05T07:55:06.672Z,2248
2017-03-05T07:56:15.714Z,2228
2017-03-05T07:57:26.131Z,2340
2017-03-05T07:58:36.562Z,2188
2017-03-05T07:59:47.016Z,2280
2017-03-05T08:00:57.183Z,2300
2017-03-05T08:02:07.505Z,2368
2017-03-05T08:03:17.657Z,2556
2017-03-05T08:04:27.395Z,2712
2017-03-05T08:05:36.746Z,2504
2017-03-05T08:06:46.499Z,2516
2017-03-05T08:07:55.489Z,2908
2017-03-05T08:09:04.820Z,2852
2017-03-05T08:10:14.564Z,3064
2017-03-05T08:11:23.907Z,2844
2017-03-05T08:12:33.249Z,2576
2017-03-05T08:13:43.090Z,3184
2017-03-05T08:14:52.417Z,3204
2017-03-05T08:16:01.335Z,3508
2017-03-05T08:17:11.096Z,4036
2017-03-05T08:18:20.431Z,4224
2017-03-05T08:19:29.812Z,3724
2017-03-05T08:20:39.143Z,3760
2017-03-05T08:21:48.895Z,3808
2017-03-05T08:22:57.814Z,3644
2017-03-05T08:24:07.137Z,3540
2017-03-05T08:25:16.508Z,3152
2017-03-05T08:26:25.834Z,3072
2017-03-05T08:27:35.589Z,3432
2017-03-05T08:28:46.138Z,4000
2017-03-05T08:29:56.288Z,3592
2017-03-05T08:31:06.136Z,3136
2017-03-05T08:32:15.058Z,2792
2017-03-05T08:33:23.988Z,3128
2017-03-05T08:34:32.933Z,3580
2017-03-05T08:35:41.871Z,3848
2017-03-05T08:36:51.766Z,4216
2017-03-05T08:38:01.124Z,4448
2017-03-05T08:39:10.464Z,3752
2017-03-05T08:40:20.611Z,4288
2017-03-05T08:41:30.358Z,3968
2017-03-05T08:42:41.016Z,3492
2017-03-05T08:43:50.373Z,3052
2017-03-05T08:44:59.285Z,3292
2017-03-05T08:46:09.836Z,4344
2017-03-05T08:47:18.758Z,4520
2017-03-05T08:48:28.273Z,5248
2017-03-05T08:49:37.631Z,5624
2017-03-05T08:50:47.385Z,6004
2017-03-05T08:51:57.563Z,6024
2017-03-05T08:53:06.499Z,5756
2017-03-05T08:54:16.386Z,5496
2017-03-05T08:55:26.116Z,5608
2017-03-05T08:56:36.296Z,6004
2017-03-05T08:57:46.057Z,6984
2017-03-05T08:58:54.984Z,7832
2017-03-05T09:00:04.125Z,8232
2017-03-05T09:01:13.865Z,8404
2017-03-05T09:02:23.603Z,8424
2017-03-05T09:03:32.536Z,8660
2017-03-05T09:04:41.471Z,8360
2017-03-05T09:05:52.313Z,8440
2017-03-05T09:07:02.457Z,8628
2017-03-05T09:08:12.627Z,8352
2017-03-05T09:09:21.973Z,8304
2017-03-05T09:10:32.132Z,7956
2017-03-05T09:11:41.919Z,8356
2017-03-05T09:12:51.269Z,8124
2017-03-05T09:14:01.004Z,7832
2017-03-05T09:15:10.340Z,7384
2017-03-05T09:16:19.692Z,7448
2017-03-05T09:17:30.560Z,9004
2017-03-05T09:18:40.300Z,9264
2017-03-05T09:19:49.639Z,8476
2017-03-05T09:20:59.363Z,8820
2017-03-05T09:22:08.687Z,8548
2017-03-05T09:23:18.957Z,8444
2017-03-05T09:24:28.727Z,8492
2017-03-05T09:25:38.473Z,7604
2017-03-05T09:26:48.213Z,6628
2017-03-05T09:27:57.534Z,6328
2017-03-05T09:29:07.115Z,6220
2017-03-05T09:30:16.880Z,6616
2017-03-05T09:31:26.225Z,7268
2017-03-05T09:32:35.165Z,7216
2017-03-05T09:33:44.904Z,7708
2017-03-05T09:34:54.349Z,9440
2017-03-05T09:36:03.295Z,11204
2017-03-05T09:37:13.046Z,10744
2017-03-05T09:38:21.992Z,9692
2017-03-05T09:39:30.931Z,9644
2017-03-05T09:40:40.980Z,9372
2017-03-05T09:41:50.724Z,8952
2017-03-05T09:43:00.505Z,9024
2017-03-05T09:44:10.236Z,8920
2017-03-05T09:45:19.582Z,9208
2017-03-05T09:46:30.153Z,9488
2017-03-05T09:47:40.363Z,9432
2017-03-05T09:48:50.109Z,9888
2017-03-05T09:49:59.428Z,9704
2017-03-05T09:51:09.157Z,9992
2017-03-05T09:52:48.214Z,10224
2017-03-05T09:53:58.370Z,10736
2017-03-05T09:55:09.360Z,10500
2017-03-05T09:56:19.155Z,10148
2017-03-05T09:57:28.640Z,8668
2017-03-05T09:58:38.420Z,8824
2017-03-05T09:59:48.201Z,8744
2017-03-05T10:00:58.353Z,9852
2017-03-05T10:02:07.698Z,9960
2017-03-05T10:03:17.875Z,10180
2017-03-05T10:04:27.233Z,10136
2017-03-05T10:05:36.571Z,10552
2017-03-05T10:06:45.545Z,10532
2017-03-05T10:07:54.480Z,10612
2017-03-05T10:09:04.620Z,10328
2017-03-05T10:10:13.964Z,10048
2017-03-05T10:11:23.309Z,10352
2017-03-05T10:12:32.262Z,10140
2017-03-05T10:13:42.451Z,9484
2017-03-05T10:14:51.957Z,9744
2017-03-05T10:16:01.298Z,9468
2017-03-05T10:17:10.671Z,9264
2017-03-05T10:18:19.633Z,8468
2017-03-05T10:19:29.390Z,8696
2017-03-05T10:20:39.396Z,9108
2017-03-05T10:21:49.135Z,9184
2017-03-05T10:22:58.956Z,9240
2017-03-05T10:24:09.113Z,8792
2017-03-05T10:25:18.844Z,8516
2017-03-05T10:26:28.749Z,9620
2017-03-05T10:27:38.130Z,9976
2017-03-05T10:28:47.508Z,10400
2017-03-05T10:29:56.455Z,10344
2017-03-05T10:31:05.802Z,10928
2017-03-05T10:32:15.266Z,10128
2017-03-05T10:33:24.697Z,9392
2017-03-05T10:34:34.124Z,9144
2017-03-05T10:35:43.873Z,8364
2017-03-05T10:36:54.436Z,7304
2017-03-05T10:38:04.756Z,8024
2017-03-05T10:39:14.513Z,7444
2017-03-05T10:40:23.701Z,6996
2017-03-05T10:41:33.086Z,7328
2017-03-05T10:42:43.296Z,8048
2017-03-05T10:43:52.368Z,8056
2017-03-05T10:45:02.114Z,7568
2017-03-05T10:46:11.041Z,6916
2017-03-05T10:47:20.373Z,6436
2017-03-05T10:48:29.302Z,7260
2017-03-05T10:49:38.685Z,8460
2017-03-05T10:50:48.537Z,9184
2017-03-05T10:51:59.124Z,10388
2017-03-05T10:53:08.872Z,10548
2017-03-05T10:54:17.809Z,10360
2017-03-05T10:55:27.749Z,10040
2017-03-05T10:56:37.185Z,9936
2017-03-05T10:57:46.593Z,9876
2017-03-05T10:58:55.513Z,10056
2017-03-05T11:00:05.693Z,10496
2017-03-05T11:01:15.020Z,10764
2017-03-05T11:02:24.355Z,11008
2017-03-05T11:03:34.546Z,11732
2017-03-05T11:04:44.316Z,12248
2017-03-05T11:05:53.649Z,12392
2017-03-05T11:07:02.636Z,12164
2017-03-05T11:08:11.982Z,11964
2017-03-05T11:09:21.729Z,11600
2017-03-05T11:10:31.897Z,11280
2017-03-05T11:11:42.048Z,10988
2017-03-05T11:12:51.420Z,11604
2017-03-05T11:14:01.160Z,12376
2017-03-05T11:15:11.308Z,12372
2017-03-05T11:16:20.645Z,11684
2017-03-05T11:17:30.391Z,12828
2017-03-05T11:18:39.569Z,12696
2017-03-05T11:19:48.905Z,12364
2017-03-05T11:20:58.238Z,12312
2017-03-05T11:22:07.971Z,13632
2017-03-05T11:23:17.301Z,13616
2017-03-05T11:24:27.182Z,13608
2017-03-05T11:25:36.106Z,14452
2017-03-05T11:26:45.036Z,13096
2017-03-05T11:27:54.380Z,11504
2017-03-05T11:29:03.702Z,10352
2017-03-05T11:30:13.097Z,11148
2017-03-05T11:31:22.825Z,13052
2017-03-05T11:32:31.739Z,14656
2017-03-05T11:33:41.512Z,14044
2017-03-05T11:34:51.246Z,13388
2017-03-05T11:36:00.716Z,13204
2017-03-05T11:37:10.457Z,13128
2017-03-05T11:38:20.601Z,12876
2017-03-05T11:39:29.927Z,14004
2017-03-05T11:40:39.255Z,13100
2017-03-05T11:41:48.371Z,14400
2017-03-05T11:42:58.509Z,13208
2017-03-05T11:44:07.430Z,11964
2017-03-05T11:45:17.184Z,10584
2017-03-05T11:46:26.513Z,10884
2017-03-05T11:47:36.500Z,12184
2017-03-05T11:48:45.415Z,12256
2017-03-05T11:49:54.791Z,11520
2017-03-05T11:51:04.520Z,11932
2017-03-05T11:52:13.847Z,12148
2017-03-05T11:53:23.755Z,11812
2017-03-05T11:54:33.928Z,10736
2017-03-05T11:55:43.259Z,9236
2017-03-05T11:56:52.987Z,8608
2017-03-05T11:58:02.726Z,8672
2017-03-05T11:59:11.815Z,7704
2017-03-05T12:00:21.551Z,6920
2017-03-05T12:01:31.306Z,6608
2017-03-05T12:02:41.468Z,8000
2017-03-05T12:03:50.802Z,7500
2017-03-05T12:04:59.829Z,8096
2017-03-05T12:06:10.406Z,9988
2017-03-05T12:07:20.161Z,11400
2017-03-05T12:08:29.491Z,11132
2017-03-05T12:09:39.237Z,10160
2017-03-05T12:10:49.082Z,9756
2017-03-05T12:11:58.822Z,9356
2017-03-05T12:13:08.960Z,8912
2017-03-05T12:14:17.885Z,8520
2017-03-05T12:15:27.634Z,8964
2017-03-05T12:16:37.985Z,10516
2017-03-05T12:17:47.725Z,10912
2017-03-05T12:18:57.059Z,10092
2017-03-05T12:20:06.800Z,9948
2017-03-05T12:21:16.146Z,9660
2017-03-05T12:22:25.622Z,9548
2017-03-05T12:23:34.539Z,10164
2017-03-05T12:24:43.863Z,10564
2017-03-05T12:25:53.198Z,10940
2017-03-05T12:27:02.947Z,9504
2017-03-05T12:28:12.274Z,9492
2017-03-05T12:29:21.199Z,9620
2017-03-05T12:30:31.341Z,8996
2017-03-05T12:31:40.263Z,8504
2017-03-05T12:32:50.436Z,8688
2017-03-05T12:33:59.423Z,9148
2017-03-05T12:35:09.154Z,9168
2017-03-05T12:36:18.079Z,9468
2017-03-05T12:37:27.820Z,9732
2017-03-05T12:38:37.142Z,9780
2017-03-05T12:39:47.132Z,9904
2017-03-05T12:40:56.868Z,9908
2017-03-05T12:42:06.195Z,9896
2017-03-05T12:43:15.938Z,10200
2017-03-05T12:44:25.744Z,10180
2017-03-05T12:45:34.714Z,9884
2017-03-05T12:46:44.463Z,9536
2017-03-05T12:47:54.198Z,9212
2017-03-05T12:49:04.361Z,9392
2017-03-05T12:50:13.693Z,10948
2017-03-05T12:51:23.206Z,11824
2017-03-05T12:52:32.563Z,11132
2017-03-05T12:53:42.710Z,11024
2017-03-05T12:54:52.460Z,10700
2017-03-05T12:56:02.611Z,11148
2017-03-05T12:57:12.504Z,12056
2017-03-05T12:58:21.439Z,12108
2017-03-05T12:59:30.776Z,12372
2017-03-05T13:00:39.695Z,12268
2017-03-05T13:01:49.428Z,12480
2017-03-05T13:02:59.213Z,13416
2017-03-05T13:04:08.554Z,13428
2017-03-05T13:05:17.880Z,11872
2017-03-05T13:06:26.820Z,11228
2017-03-05T13:07:36.158Z,11144
2017-03-05T13:08:45.986Z,11180
2017-03-05T13:09:55.747Z,11256
2017-03-05T13:11:05.906Z,11232
2017-03-05T13:12:16.117Z,11408
2017-03-05T13:13:27.094Z,10904
2017-03-05T13:14:36.915Z,10952
2017-03-05T13:15:45.831Z,13208
2017-03-05T13:16:55.589Z,26080
2017-03-05T13:18:04.934Z,30016
2017-03-05T13:19:13.865Z,28864
2017-03-05T13:20:24.078Z,23744
2017-03-05T13:21:32.996Z,14912
2017-03-05T13:22:42.328Z,11792
2017-03-05T13:23:51.694Z,13856
2017-03-05T13:25:00.643Z,15456
2017-03-05T13:26:10.826Z,13020
2017-03-05T13:27:20.590Z,13272
2017-03-05T13:28:29.934Z,13988
2017-03-05T13:29:39.688Z,12708
2017-03-05T13:30:49.019Z,12492
2017-03-05T13:31:58.098Z,25472
2017-03-05T13:33:08.691Z,21344
2017-03-05T13:34:17.618Z,13672
2017-03-05T13:35:27.775Z,10584
2017-03-05T13:36:37.922Z,10356
2017-03-05T13:37:47.303Z,8140
2017-03-05T13:38:56.633Z,7788
2017-03-05T13:40:06.372Z,7520
2017-03-05T13:41:15.728Z,6816
2017-03-05T13:42:25.267Z,6708
2017-03-05T13:43:34.200Z,7152
2017-03-05T13:44:43.945Z,7488
2017-03-05T13:45:53.711Z,7148
2017-03-05T13:47:03.462Z,7112
2017-03-05T13:48:13.192Z,7020
2017-03-05T13:49:22.953Z,7460
2017-03-05T13:50:31.882Z,9144
2017-03-05T13:51:42.028Z,16992
2017-03-05T13:52:51.378Z,13420
2017-03-05T13:54:00.701Z,12320
2017-03-05T13:55:10.472Z,34240
2017-03-05T13:56:20.629Z,21824
2017-03-05T13:57:29.980Z,13712
2017-03-05T13:58:39.736Z,14172
2017-03-05T13:59:48.674Z,12908
2017-03-05T14:00:58.466Z,11908
2017-03-05T14:02:08.240Z,10764
2017-03-05T14:03:18.051Z,9644
2017-03-05T14:04:27.394Z,7664
2017-03-05T14:05:36.335Z,6500
2017-03-05T14:06:45.255Z,6124
2017-03-05T14:07:54.992Z,6216
2017-03-05T14:09:04.982Z,6696
2017-03-05T14:10:13.912Z,7072
2017-03-05T14:11:23.256Z,7784
2017-03-05T14:12:33.015Z,8100
2017-03-05T14:13:43.154Z,8732
2017-03-05T14:14:53.408Z,8328
2017-03-05T14:16:03.155Z,7500
2017-03-05T14:17:12.889Z,6544
2017-03-05T14:18:21.818Z,6356
2017-03-05T14:19:31.164Z,6316
2017-03-05T14:20:40.798Z,6248
2017-03-05T14:21:50.955Z,6464
2017-03-05T14:22:59.876Z,6892
2017-03-05T14:24:10.024Z,7448
2017-03-05T14:25:18.950Z,7492
2017-03-05T14:26:28.475Z,7196
2017-03-05T14:27:37.813Z,6544
2017-03-05T14:28:47.152Z,6168
2017-03-05T14:29:56.905Z,6900
2017-03-05T14:31:07.462Z,8488
2017-03-05T14:32:16.861Z,9840
2017-03-05T14:33:26.595Z,10812
2017-03-05T14:34:35.933Z,12280
2017-03-05T14:35:45.679Z,13356
2017-03-05T14:36:54.609Z,17376
2017-03-05T14:38:04.238Z,24576
2017-03-05T14:39:13.169Z,15004
2017-03-05T14:40:22.550Z,14608
2017-03-05T14:41:31.905Z,12680
2017-03-05T14:42:41.249Z,10240
2017-03-05T14:43:51.048Z,8632
2017-03-05T14:45:00.391Z,7760
2017-03-05T14:46:09.739Z,7460
2017-03-05T14:47:19.108Z,7296
2017-03-05T14:48:28.857Z,8196
2017-03-05T14:49:38.021Z,31008
2017-03-05T14:50:47.765Z,31552
2017-03-05T14:51:57.107Z,24832
2017-03-05T14:53:06.442Z,23136
2017-03-05T14:54:15.780Z,19232
2017-03-05T14:55:25.470Z,17120
2017-03-05T14:56:34.395Z,18656
2017-03-05T14:57:43.753Z,20960
2017-03-05T14:58:52.673Z,27136
2017-03-05T15:00:01.997Z,23104
2017-03-05T15:01:12.353Z,10348
2017-03-05T15:02:21.680Z,8220
2017-03-05T15:03:31.005Z,8280
2017-03-05T15:04:39.932Z,21792
2017-03-05T15:05:49.684Z,17984
2017-03-05T15:06:59.676Z,16960
2017-03-05T15:08:09.857Z,16160
2017-03-05T15:09:18.776Z,10988
2017-03-05T15:10:27.701Z,15296
2017-03-05T15:11:37.454Z,14976
2017-03-05T15:12:47.199Z,13056
2017-03-05T15:13:56.958Z,10892
2017-03-05T15:15:06.292Z,13472
2017-03-05T15:16:16.445Z,15552
2017-03-05T15:17:25.778Z,18944
2017-03-05T15:18:35.366Z,20064
2017-03-05T15:19:44.718Z,14432
2017-03-05T15:20:54.882Z,14476
2017-03-05T15:22:04.633Z,12752
2017-03-05T15:23:14.388Z,12108
2017-03-05T15:24:24.157Z,13856
2017-03-05T15:25:33.485Z,14368
2017-03-05T15:26:42.839Z,14128
2017-03-05T15:27:52.594Z,13756
2017-03-05T15:29:02.330Z,13844
2017-03-05T15:30:13.140Z,14500
2017-03-05T15:31:22.474Z,16160
2017-03-05T15:32:31.812Z,17696
2017-03-05T15:33:41.623Z,16160
2017-03-05T15:34:51.777Z,9156
2017-03-05T15:36:01.017Z,8372
2017-03-05T15:37:10.375Z,12092
2017-03-05T15:38:19.303Z,9320
2017-03-05T15:39:28.236Z,7436
2017-03-05T15:40:37.566Z,7528
2017-03-05T15:41:47.656Z,8688
2017-03-05T15:42:57.398Z,8980
2017-03-05T15:44:06.324Z,7256
2017-03-05T15:45:16.468Z,7016
2017-03-05T15:46:25.819Z,7780
2017-03-05T15:47:35.418Z,8136
2017-03-05T15:48:45.167Z,7560
2017-03-05T15:49:55.352Z,7708
2017-03-05T15:51:04.677Z,7212
2017-03-05T15:52:14.015Z,6988
2017-03-05T15:53:23.411Z,6780
2017-03-05T15:54:33.567Z,6752
2017-03-05T15:55:43.336Z,7044
2017-03-05T15:56:52.292Z,7556